createdAt,value
2023-03-27T00:02:28.854Z,99.90
2023-03-27T00:04:56.775Z,99.90
2023-03-27T00:07:24.505Z,99.90
2023-03-27T00:09:53.428Z,99.90
2023-03-27T00:12:21.126Z,99.90
2023-03-27T00:14:48.819Z,99.90
2023-03-27T00:17:17.830Z,99.90
2023-03-27T00:19:45.540Z,99.90
2023-03-27T00:22:13.250Z,99.90
2023-03-27T00:24:40.937Z,99.90
2023-03-27T00:27:09.101Z,99.90
2023-03-27T00:29:37.078Z,99.90
2023-03-27T00:32:04.817Z,99.90
2023-03-27T00:34:33.967Z,99.90
2023-03-27T00:37:04.300Z,99.90
2023-03-27T00:39:32.106Z,99.90
2023-03-27T00:41:59.797Z,99.90
2023-03-27T00:44:34.190Z,99.90
2023-03-27T00:47:03.381Z,99.90
2023-03-27T00:49:35.352Z,99.90
2023-03-27T00:52:06.708Z,99.90
2023-03-27T00:54:40.178Z,99.90
2023-03-27T00:57:12.417Z,99.90
2023-03-27T00:59:42.109Z,99.90
2023-03-27T01:02:10.352Z,99.90
2023-03-27T01:04:41.057Z,99.90
2023-03-27T01:07:11.162Z,99.90
2023-03-27T01:09:39.010Z,99.90
2023-03-27T01:12:31.261Z,99.90
2023-03-27T01:15:15.420Z,99.90
2023-03-27T01:17:57.851Z,99.90
2023-03-27T01:20:51.357Z,99.90
2023-03-27T01:23:59.488Z,99.90
2023-03-27T01:27:01.483Z,99.90
2023-03-27T01:29:42.723Z,99.90
2023-03-27T01:32:38.889Z,99.90
2023-03-27T01:35:36.997Z,99.90
2023-03-27T01:38:22.057Z,99.90
2023-03-27T01:40:59.186Z,99.90
2023-03-27T01:43:32.706Z,99.90
2023-03-27T01:46:08.638Z,99.90
2023-03-27T01:48:41.140Z,99.90
2023-03-27T01:51:12.779Z,99.90
2023-03-27T01:53:43.786Z,99.90
2023-03-27T01:56:18.243Z,99.90
2023-03-27T01:58:49.509Z,99.90
2023-03-27T02:01:22.378Z,99.90
2023-03-27T02:03:55.397Z,99.90
2023-03-27T02:06:28.306Z,99.90
2023-03-27T02:09:01.944Z,99.90
2023-03-27T02:11:35.175Z,99.90
2023-03-27T02:14:06.466Z,99.90
2023-03-27T02:16:41.326Z,99.90
2023-03-27T02:19:15.030Z,99.90
2023-03-27T02:21:42.704Z,99.90
2023-03-27T02:24:10.423Z,99.90
2023-03-27T02:26:39.435Z,99.90
2023-03-27T02:29:27.601Z,99.90
2023-03-27T02:32:06.445Z,99.90
2023-03-27T02:34:50.222Z,99.90
2023-03-27T02:37:32.009Z,99.90
2023-03-27T02:40:10.039Z,99.90
2023-03-27T02:42:47.300Z,99.90
2023-03-27T02:45:25.088Z,99.90
2023-03-27T02:47:57.070Z,99.90
2023-03-27T02:50:28.983Z,99.90
2023-03-27T02:53:01.197Z,99.90
2023-03-27T02:55:33.972Z,99.90
2023-03-27T02:58:07.484Z,99.90
2023-03-27T03:00:40.224Z,99.90
2023-03-27T03:03:12.402Z,99.90
2023-03-27T03:05:41.132Z,99.90
2023-03-27T03:08:10.254Z,99.90
2023-03-27T03:10:43.448Z,99.90
2023-03-27T03:13:12.778Z,99.90
2023-03-27T03:15:40.630Z,99.90
2023-03-27T03:18:09.167Z,99.90
2023-03-27T03:20:37.137Z,99.90
2023-03-27T03:23:04.836Z,99.90
2023-03-27T03:25:32.535Z,99.90
2023-03-27T03:28:01.515Z,99.90
2023-03-27T03:30:31.243Z,99.90
2023-03-27T03:33:00.059Z,99.90
2023-03-27T03:35:28.257Z,99.90
2023-03-27T03:37:58.245Z,99.90
2023-03-27T03:40:26.040Z,99.90
2023-03-27T03:42:54.219Z,99.90
2023-03-27T03:45:21.935Z,99.90
2023-03-27T03:47:51.127Z,99.90
2023-03-27T03:50:19.025Z,99.90
2023-03-27T03:52:47.071Z,99.90
2023-03-27T03:55:15.940Z,99.90
2023-03-27T03:57:47.380Z,99.90
2023-03-27T04:00:16.947Z,99.90
2023-03-27T04:02:45.409Z,99.90
2023-03-27T04:05:14.569Z,99.90
2023-03-27T04:07:42.449Z,99.90
2023-03-27T04:10:11.865Z,99.90
2023-03-27T04:12:39.645Z,99.90
2023-03-27T04:15:09.286Z,99.90
2023-03-27T04:17:38.362Z,99.90
2023-03-27T04:20:07.399Z,99.90
2023-03-27T04:22:37.998Z,99.90
2023-03-27T04:25:07.058Z,99.90
2023-03-27T04:27:35.664Z,99.90
2023-03-27T04:30:03.479Z,99.90
2023-03-27T04:32:31.237Z,99.90
2023-03-27T04:34:59.062Z,99.90
2023-03-27T04:37:27.046Z,99.90
2023-03-27T04:39:56.093Z,99.90
2023-03-27T04:42:23.803Z,99.90
2023-03-27T04:44:52.482Z,99.90
2023-03-27T04:47:21.420Z,99.90
2023-03-27T04:49:50.990Z,99.90
2023-03-27T04:52:19.580Z,99.90
2023-03-27T04:54:48.271Z,99.90
2023-03-27T04:57:19.142Z,99.90
2023-03-27T04:59:46.987Z,99.90
2023-03-27T05:02:16.452Z,99.90
2023-03-27T05:04:44.186Z,99.90
2023-03-27T05:07:12.404Z,99.90
2023-03-27T05:09:40.204Z,99.90
2023-03-27T05:12:08.247Z,99.90
2023-03-27T05:14:37.259Z,99.90
2023-03-27T05:17:05.132Z,99.90
2023-03-27T05:19:32.890Z,99.90
2023-03-27T05:22:00.613Z,99.90
2023-03-27T05:24:28.417Z,99.90
2023-03-27T05:26:56.128Z,99.90
2023-03-27T05:29:23.805Z,99.90
2023-03-27T05:31:52.886Z,99.90
2023-03-27T05:34:21.048Z,99.90
2023-03-27T05:36:49.299Z,99.90
2023-03-27T05:39:17.020Z,99.90
2023-03-27T05:41:44.793Z,99.90
2023-03-27T05:44:12.475Z,99.90
2023-03-27T05:46:42.653Z,99.90
2023-03-27T05:49:11.788Z,99.90
2023-03-27T05:51:39.635Z,99.90
2023-03-27T05:54:15.058Z,99.90
2023-03-27T05:56:42.846Z,99.90
2023-03-27T05:59:10.646Z,99.90
2023-03-27T06:01:39.836Z,99.90
2023-03-27T06:04:09.278Z,99.90
2023-03-27T06:06:39.066Z,99.90
2023-03-27T06:09:07.743Z,99.90
2023-03-27T06:11:35.557Z,99.90
2023-03-27T06:14:04.076Z,99.90
2023-03-27T06:16:33.124Z,99.90
2023-03-27T06:19:01.177Z,99.90
2023-03-27T06:21:28.900Z,99.90
2023-03-27T06:23:58.088Z,99.90
2023-03-27T06:26:27.842Z,99.90
2023-03-27T06:28:56.163Z,99.90
2023-03-27T06:31:25.618Z,99.90
2023-03-27T06:33:53.365Z,99.90
2023-03-27T06:36:21.126Z,99.90
2023-03-27T06:38:48.880Z,99.90
2023-03-27T06:41:18.317Z,99.90
2023-03-27T06:43:46.319Z,99.90
2023-03-27T06:46:14.077Z,99.90
2023-03-27T06:48:41.830Z,99.90
2023-03-27T06:51:09.546Z,99.90
2023-03-27T06:53:38.191Z,99.90
2023-03-27T06:56:07.329Z,99.90
2023-03-27T06:58:36.539Z,99.90
2023-03-27T07:01:04.313Z,99.90
2023-03-27T07:03:32.036Z,99.90
2023-03-27T07:06:00.445Z,99.90
2023-03-27T07:08:28.609Z,99.90
2023-03-27T07:11:10.833Z,99.90
2023-03-27T07:13:42.389Z,99.90
2023-03-27T07:16:12.060Z,99.90
2023-03-27T07:18:41.800Z,99.90
2023-03-27T07:21:09.813Z,99.90
2023-03-27T07:23:37.536Z,99.90
2023-03-27T07:26:05.850Z,99.90
2023-03-27T07:28:33.675Z,99.90
2023-03-27T07:31:16.693Z,99.90
2023-03-27T07:33:57.997Z,99.90
2023-03-27T07:36:26.505Z,99.90
2023-03-27T07:38:54.183Z,99.90
2023-03-27T07:41:22.797Z,99.90
2023-03-27T07:43:50.615Z,99.90
2023-03-27T07:46:19.731Z,99.90
2023-03-27T07:48:47.498Z,99.90
2023-03-27T07:51:15.235Z,99.90
2023-03-27T07:53:43.562Z,99.90
2023-03-27T07:56:11.740Z,99.90
2023-03-27T07:58:39.816Z,99.90
2023-03-27T08:01:07.964Z,99.90
2023-03-27T08:03:38.805Z,99.90
2023-03-27T08:06:07.478Z,99.90
2023-03-27T08:08:35.214Z,99.90
2023-03-27T08:11:13.497Z,99.90
2023-03-27T08:13:47.646Z,99.90
2023-03-27T08:16:18.065Z,99.90
2023-03-27T08:18:47.604Z,99.90
2023-03-27T08:21:15.725Z,99.90
2023-03-27T08:23:43.439Z,99.90
2023-03-27T08:26:11.162Z,99.90
2023-03-27T08:28:39.178Z,99.90
2023-03-27T08:31:11.624Z,99.90
2023-03-27T08:33:41.508Z,99.90
2023-03-27T08:36:12.377Z,99.90
2023-03-27T08:38:40.247Z,99.90
2023-03-27T08:41:09.148Z,99.90
2023-03-27T08:43:40.564Z,99.90
2023-03-27T08:46:20.884Z,99.90
2023-03-27T08:48:53.102Z,99.90
2023-03-27T08:51:26.752Z,99.90
2023-03-27T08:53:58.107Z,96.20
2023-03-27T08:56:26.913Z,99.50
2023-03-27T08:58:55.166Z,94.70
2023-03-27T09:01:31.069Z,94.10
2023-03-27T09:04:05.045Z,96.30
2023-03-27T09:06:42.427Z,99.90
2023-03-27T09:09:19.395Z,99.90
2023-03-27T09:11:59.773Z,99.90
2023-03-27T09:14:33.911Z,99.90
2023-03-27T09:17:05.891Z,99.90
2023-03-27T09:19:43.765Z,99.90
2023-03-27T09:22:17.954Z,98.30
2023-03-27T09:24:48.924Z,90.80
2023-03-27T09:27:22.183Z,84.60
2023-03-27T09:30:06.060Z,79.50
2023-03-27T09:32:35.037Z,88.80
2023-03-27T09:35:04.535Z,94.50
2023-03-27T09:37:36.903Z,98.30
2023-03-27T09:40:07.432Z,97.80
2023-03-27T09:42:40.287Z,88.00
2023-03-27T09:45:11.373Z,77.70
2023-03-27T09:47:43.722Z,82.00
2023-03-27T09:50:27.700Z,90.00
2023-03-27T09:53:09.270Z,93.50
2023-03-27T09:55:49.657Z,99.90
2023-03-27T09:58:25.888Z,99.90
2023-03-27T10:01:08.482Z,98.00
2023-03-27T10:03:40.782Z,82.80
2023-03-27T10:06:10.984Z,83.80
2023-03-27T10:08:41.988Z,78.60
2023-03-27T10:11:16.638Z,88.40
2023-03-27T10:13:49.083Z,90.80
2023-03-27T10:16:18.727Z,93.10
2023-03-27T10:18:48.386Z,87.00
2023-03-27T10:21:26.618Z,90.00
2023-03-27T10:24:02.137Z,91.60
2023-03-27T10:26:33.617Z,92.70
2023-03-27T10:29:07.257Z,94.90
2023-03-27T10:31:38.268Z,87.00
2023-03-27T10:34:08.290Z,80.10
2023-03-27T10:36:39.472Z,66.10
2023-03-27T10:39:12.837Z,63.20
2023-03-27T10:41:41.739Z,69.50
2023-03-27T10:44:17.647Z,70.60
2023-03-27T10:46:46.134Z,66.90
2023-03-27T10:49:25.493Z,71.30
2023-03-27T10:52:00.405Z,77.70
2023-03-27T10:54:40.125Z,76.90
2023-03-27T10:57:14.678Z,71.90
2023-03-27T10:59:47.944Z,72.80
2023-03-27T11:02:20.223Z,78.40
2023-03-27T11:04:52.141Z,83.40
2023-03-27T11:07:25.365Z,87.90
2023-03-27T11:10:03.499Z,90.70
2023-03-27T11:12:34.734Z,83.50
2023-03-27T11:15:10.562Z,72.80
2023-03-27T11:17:45.078Z,72.60
2023-03-27T11:20:21.572Z,76.10
2023-03-27T11:22:53.680Z,79.80
2023-03-27T11:25:40.994Z,75.80
2023-03-27T11:28:18.794Z,71.50
2023-03-27T11:30:50.594Z,74.90
2023-03-27T11:33:32.515Z,76.10
2023-03-27T11:36:13.214Z,78.40
2023-03-27T11:38:46.405Z,77.80
2023-03-27T11:41:16.302Z,79.00
2023-03-27T11:43:44.659Z,75.40
2023-03-27T11:46:31.002Z,78.10
2023-03-27T11:49:12.812Z,77.60
2023-03-27T11:51:57.453Z,79.10
2023-03-27T11:54:42.757Z,77.70
2023-03-27T11:57:18.239Z,80.00
2023-03-27T12:00:08.318Z,79.80
2023-03-27T12:03:03.442Z,83.10
2023-03-27T12:05:44.035Z,84.40
2023-03-27T12:08:24.772Z,88.10
2023-03-27T12:10:56.051Z,90.00
2023-03-27T12:14:01.002Z,88.40
2023-03-27T12:16:51.210Z,91.10
2023-03-27T12:19:38.561Z,90.20
2023-03-27T12:22:23.975Z,87.00
2023-03-27T12:25:09.614Z,86.30
2023-03-27T12:27:50.112Z,88.70
2023-03-27T12:30:27.113Z,89.30
2023-03-27T12:33:17.641Z,88.20
2023-03-27T12:35:47.816Z,88.70
2023-03-27T12:38:23.903Z,91.40
2023-03-27T12:41:03.814Z,93.30
2023-03-27T12:43:33.802Z,96.80
2023-03-27T12:46:12.229Z,99.90
2023-03-27T12:48:57.762Z,99.90
2023-03-27T12:51:41.284Z,99.90
2023-03-27T12:54:24.493Z,99.90
2023-03-27T12:56:59.594Z,97.60
2023-03-27T12:59:29.432Z,94.00
2023-03-27T13:02:33.435Z,93.90
2023-03-27T13:05:28.492Z,94.40
2023-03-27T13:08:15.104Z,92.80
2023-03-27T13:10:51.451Z,94.20
2023-03-27T13:13:33.751Z,95.20
2023-03-27T13:16:15.694Z,93.50
2023-03-27T13:19:00.271Z,99.90
2023-03-27T13:21:38.444Z,99.90
2023-03-27T13:24:24.603Z,99.90
2023-03-27T13:27:05.822Z,99.90
2023-03-27T13:29:35.861Z,99.90
2023-03-27T13:32:06.085Z,99.90
2023-03-27T13:34:38.694Z,99.90
2023-03-27T13:37:40.081Z,99.90
2023-03-27T13:40:20.487Z,99.90
2023-03-27T13:42:52.128Z,99.90
2023-03-27T13:45:23.186Z,99.90
2023-03-27T13:48:17.828Z,99.90
2023-03-27T13:51:17.736Z,99.90
2023-03-27T13:54:00.632Z,99.90
2023-03-27T13:56:41.274Z,99.90
2023-03-27T13:59:40.911Z,99.90
2023-03-27T14:02:39.595Z,99.90
2023-03-27T14:05:24.994Z,99.90
2023-03-27T14:08:13.067Z,99.90
2023-03-27T14:11:04.453Z,99.90
2023-03-27T14:13:45.539Z,99.90
2023-03-27T14:16:55.407Z,99.90
2023-03-27T14:19:53.222Z,99.90
2023-03-27T14:22:26.273Z,99.90
2023-03-27T14:25:00.258Z,99.90
2023-03-27T14:27:28.376Z,99.90
2023-03-27T14:30:08.592Z,99.90
2023-03-27T14:32:36.606Z,99.90
2023-03-27T14:35:05.551Z,99.90
2023-03-27T14:37:36.074Z,99.90
2023-03-27T14:40:22.879Z,99.90
2023-03-27T14:42:52.626Z,99.90
2023-03-27T14:45:23.886Z,99.90
2023-03-27T14:47:55.180Z,99.90
2023-03-27T14:50:23.419Z,99.90
2023-03-27T14:52:53.570Z,99.90
2023-03-27T14:55:25.770Z,99.90
2023-03-27T14:57:56.592Z,99.90
2023-03-27T15:00:25.773Z,99.90
2023-03-27T15:02:57.190Z,99.90
2023-03-27T15:05:25.575Z,99.90
2023-03-27T15:07:54.676Z,99.90
2023-03-27T15:10:26.456Z,99.90
2023-03-27T15:12:55.802Z,99.90
2023-03-27T15:15:26.238Z,99.90
2023-03-27T15:17:55.886Z,99.90
2023-03-27T15:20:27.634Z,99.90
2023-03-27T15:23:01.359Z,99.90
2023-03-27T15:25:36.740Z,99.90
2023-03-27T15:28:11.475Z,99.90
2023-03-27T15:30:44.842Z,99.90
2023-03-27T15:33:20.374Z,99.90
2023-03-27T15:35:52.508Z,99.90
2023-03-27T15:38:26.694Z,99.90
2023-03-27T15:41:03.407Z,99.90
2023-03-27T15:43:31.910Z,99.90
2023-03-27T15:46:12.570Z,99.90
2023-03-27T15:48:44.172Z,99.90
2023-03-27T15:51:13.663Z,99.90
2023-03-27T15:53:44.954Z,99.90
2023-03-27T15:56:22.735Z,99.90
2023-03-27T15:58:54.254Z,99.90
2023-03-27T16:01:24.183Z,99.90
2023-03-27T16:03:53.415Z,99.90
2023-03-27T16:06:30.717Z,99.90
2023-03-27T16:08:59.579Z,99.90
2023-03-27T16:11:39.694Z,99.90
2023-03-27T16:14:21.913Z,99.90
2023-03-27T16:16:54.623Z,99.90
2023-03-27T16:19:22.405Z,99.90
2023-03-27T16:21:57.575Z,99.90
2023-03-27T16:24:25.490Z,99.90
2023-03-27T16:26:55.016Z,99.90
2023-03-27T16:29:23.032Z,99.90
2023-03-27T16:31:50.868Z,99.90
2023-03-27T16:34:23.043Z,99.90
2023-03-27T16:36:51.588Z,99.90
2023-03-27T16:39:19.390Z,99.90
2023-03-27T16:41:47.254Z,99.90
2023-03-27T16:44:16.317Z,99.90
2023-03-27T16:46:44.171Z,99.90
2023-03-27T16:49:13.468Z,99.90
2023-03-27T16:51:41.232Z,99.90
2023-03-27T16:54:08.994Z,99.90
2023-03-27T16:56:36.870Z,99.90
2023-03-27T16:59:04.729Z,99.90
2023-03-27T17:01:34.065Z,99.90
2023-03-27T17:04:01.867Z,99.90
2023-03-27T17:06:29.620Z,99.90
2023-03-27T17:08:57.437Z,99.90
2023-03-27T17:11:25.549Z,99.90
2023-03-27T17:13:53.920Z,99.90
2023-03-27T17:16:21.891Z,99.90
2023-03-27T17:18:51.836Z,99.90
2023-03-27T17:21:19.820Z,99.90
2023-03-27T17:23:48.716Z,99.90
2023-03-27T17:26:23.068Z,99.90
2023-03-27T17:28:51.256Z,99.90
2023-03-27T17:31:19.072Z,99.90
2023-03-27T17:33:46.910Z,99.90
2023-03-27T17:36:23.862Z,99.90
2023-03-27T17:38:57.932Z,99.90
2023-03-27T17:41:27.130Z,99.90
2023-03-27T17:43:54.927Z,99.90
2023-03-27T17:46:23.101Z,99.90
2023-03-27T17:48:51.059Z,99.90
2023-03-27T17:51:21.505Z,99.90
2023-03-27T17:53:49.352Z,99.90
2023-03-27T17:56:17.082Z,99.90
2023-03-27T17:58:49.146Z,99.90
2023-03-27T18:01:20.008Z,99.90
2023-03-27T18:03:48.504Z,99.90
2023-03-27T18:06:18.306Z,99.90
2023-03-27T18:08:48.042Z,99.90
2023-03-27T18:11:16.631Z,99.90
2023-03-27T18:13:44.891Z,99.90
2023-03-27T18:16:12.711Z,99.90
2023-03-27T18:18:41.277Z,99.90
2023-03-27T18:21:09.510Z,99.90
2023-03-27T18:23:46.037Z,99.90
2023-03-27T18:26:16.561Z,99.90
2023-03-27T18:28:44.613Z,99.90
2023-03-27T18:31:13.451Z,99.90
2023-03-27T18:33:41.440Z,99.90
2023-03-27T18:36:11.916Z,99.90
2023-03-27T18:38:40.694Z,99.90
2023-03-27T18:41:08.983Z,99.90
2023-03-27T18:43:38.198Z,99.90
2023-03-27T18:46:07.806Z,99.90
2023-03-27T18:48:36.328Z,99.90
2023-03-27T18:51:05.972Z,99.90
2023-03-27T18:53:34.152Z,99.90
2023-03-27T18:56:02.343Z,99.90
2023-03-27T18:58:30.777Z,99.90
2023-03-27T19:01:00.112Z,99.90
2023-03-27T19:03:34.883Z,99.90
2023-03-27T19:06:04.507Z,99.90
2023-03-27T19:08:32.439Z,99.90
2023-03-27T19:11:01.039Z,99.90
2023-03-27T19:13:28.992Z,99.90
2023-03-27T19:15:56.774Z,99.90
2023-03-27T19:18:29.909Z,99.90
2023-03-27T19:20:59.816Z,99.90
2023-03-27T19:23:28.069Z,99.90
2023-03-27T19:25:56.112Z,99.90
2023-03-27T19:28:23.830Z,99.90
2023-03-27T19:30:54.164Z,99.90
2023-03-27T19:33:21.978Z,99.90
2023-03-27T19:35:54.399Z,99.90
2023-03-27T19:38:22.174Z,99.90
2023-03-27T19:40:49.943Z,99.90
2023-03-27T19:43:18.803Z,99.90
2023-03-27T19:46:04.415Z,99.90
2023-03-27T19:48:41.359Z,99.90
2023-03-27T19:51:10.432Z,99.90
2023-03-27T19:53:38.639Z,99.90
2023-03-27T19:56:06.714Z,99.90
2023-03-27T19:58:34.427Z,99.90
2023-03-27T20:01:04.560Z,99.90
2023-03-27T20:03:33.217Z,99.90
2023-03-27T20:06:07.660Z,99.90
2023-03-27T20:08:38.638Z,99.90
2023-03-27T20:11:07.325Z,99.90
2023-03-27T20:13:42.528Z,99.90
2023-03-27T20:16:17.198Z,99.90
2023-03-27T20:18:45.086Z,99.90
2023-03-27T20:21:13.802Z,99.90
2023-03-27T20:23:43.168Z,99.90
2023-03-27T20:26:10.926Z,99.90
2023-03-27T20:28:38.684Z,99.90
2023-03-27T20:31:07.442Z,99.90
2023-03-27T20:33:35.366Z,99.90
2023-03-27T20:36:03.395Z,99.90
2023-03-27T20:38:32.675Z,99.90
2023-03-27T20:41:03.661Z,99.90
2023-03-27T20:43:34.940Z,99.90
2023-03-27T20:46:04.571Z,99.90
2023-03-27T20:48:40.330Z,99.90
2023-03-27T20:51:14.552Z,99.90
2023-03-27T20:53:43.234Z,99.90
2023-03-27T20:56:14.430Z,99.90
2023-03-27T20:58:44.292Z,99.90
2023-03-27T21:01:12.448Z,99.90
2023-03-27T21:03:42.693Z,99.90
2023-03-27T21:06:13.061Z,99.90
2023-03-27T21:08:41.260Z,99.90
2023-03-27T21:11:09.382Z,99.90
2023-03-27T21:13:38.431Z,99.90
2023-03-27T21:16:07.074Z,99.90
2023-03-27T21:18:35.127Z,99.90
2023-03-27T21:21:02.927Z,99.90
2023-03-27T21:23:30.672Z,99.90
2023-03-27T21:25:58.578Z,99.90
2023-03-27T21:28:26.824Z,99.90
2023-03-27T21:30:55.869Z,99.90
2023-03-27T21:33:23.683Z,99.90
2023-03-27T21:35:51.410Z,99.90
2023-03-27T21:38:19.483Z,99.90
2023-03-27T21:40:47.887Z,99.90
2023-03-27T21:43:15.977Z,99.90
2023-03-27T21:45:43.789Z,99.90
2023-03-27T21:48:12.904Z,99.90
2023-03-27T21:50:40.725Z,99.90
2023-03-27T21:53:08.440Z,99.90
2023-03-27T21:55:37.402Z,99.90
2023-03-27T21:58:05.233Z,99.90
2023-03-27T22:00:33.369Z,99.90
2023-03-27T22:03:01.149Z,99.90
2023-03-27T22:05:30.326Z,99.90
2023-03-27T22:07:58.564Z,99.90
2023-03-27T22:10:26.276Z,99.90
2023-03-27T22:12:53.976Z,99.90
2023-03-27T22:15:21.687Z,99.90
2023-03-27T22:17:49.464Z,99.90
2023-03-27T22:20:17.349Z,99.90
2023-03-27T22:22:46.379Z,99.90
2023-03-27T22:25:14.067Z,99.90
2023-03-27T22:27:41.786Z,99.90
2023-03-27T22:30:11.099Z,99.90
2023-03-27T22:32:38.816Z,99.90
2023-03-27T22:35:07.246Z,99.90
2023-03-27T22:37:36.978Z,99.90
2023-03-27T22:40:07.749Z,99.90
2023-03-27T22:42:35.664Z,99.90
2023-03-27T22:45:03.526Z,99.90
2023-03-27T22:47:32.336Z,99.90
2023-03-27T22:50:02.312Z,99.90
2023-03-27T22:52:30.101Z,99.90
2023-03-27T22:54:57.820Z,99.90
2023-03-27T22:57:26.902Z,99.90
2023-03-27T22:59:54.582Z,99.90
2023-03-27T23:02:22.545Z,99.90
2023-03-27T23:04:50.481Z,99.90
2023-03-27T23:07:18.207Z,99.90
2023-03-27T23:09:45.944Z,99.90
2023-03-27T23:12:13.641Z,99.90
2023-03-27T23:14:42.689Z,99.90
2023-03-27T23:17:10.601Z,99.90
2023-03-27T23:19:38.396Z,99.90
2023-03-27T23:22:06.178Z,99.90
2023-03-27T23:24:33.897Z,99.90
2023-03-27T23:27:01.656Z,99.90
2023-03-27T23:29:29.367Z,99.90
2023-03-27T23:31:58.836Z,99.90
2023-03-27T23:34:26.571Z,99.90
2023-03-27T23:36:54.319Z,99.90
2023-03-27T23:39:22.104Z,99.90
2023-03-27T23:41:49.862Z,99.90
2023-03-27T23:44:17.598Z,99.90
2023-03-27T23:46:45.436Z,99.90
2023-03-27T23:49:16.460Z,99.90
2023-03-27T23:51:44.196Z,99.90
2023-03-27T23:54:11.929Z,99.90
2023-03-27T23:56:39.666Z,99.90
2023-03-27T23:59:07.440Z,99.90
